createdAt,value
2018-06-16T00:01:03.711Z,99718.13
2018-06-16T00:02:39.298Z,99718.75
2018-06-16T00:04:14.930Z,99715.33
2018-06-16T00:05:50.568Z,99715.08
2018-06-16T00:07:26.143Z,99712.11
2018-06-16T00:09:01.730Z,99708.05
2018-06-16T00:10:37.270Z,99711.83
2018-06-16T00:12:12.885Z,99712.30
2018-06-16T00:13:48.478Z,99710.70
2018-06-16T00:15:24.060Z,99718.06
2018-06-16T00:16:59.684Z,99712.55
2018-06-16T00:18:35.279Z,99709.77
2018-06-16T00:20:10.833Z,99708.45
2018-06-16T00:21:46.410Z,99714.61
2018-06-16T00:23:22.661Z,99714.08
2018-06-16T00:24:59.306Z,99718.55
2018-06-16T00:26:34.918Z,99708.29
2018-06-16T00:28:10.510Z,99713.72
2018-06-16T00:29:46.228Z,99709.90
2018-06-16T00:31:21.846Z,99709.28
2018-06-16T00:32:57.453Z,99707.95
2018-06-16T00:34:33.077Z,99711.38
2018-06-16T00:36:08.868Z,99710.21
2018-06-16T00:37:44.400Z,99706.39
2018-06-16T00:39:19.993Z,99706.39
2018-06-16T00:40:55.611Z,99707.56
2018-06-16T00:42:31.184Z,99701.89
2018-06-16T00:44:06.830Z,99701.08
2018-06-16T00:45:42.385Z,99703.95
2018-06-16T00:47:18.121Z,99700.16
2018-06-16T00:48:53.692Z,99699.59
2018-06-16T00:50:29.438Z,99696.90
2018-06-16T00:52:05.007Z,99702.73
2018-06-16T00:53:40.615Z,99699.33
2018-06-16T00:55:16.253Z,99706.44
2018-06-16T00:57:02.921Z,99698.68
2018-06-16T00:58:38.862Z,99701.17
2018-06-16T01:00:15.216Z,99700.69
2018-06-16T01:01:50.841Z,99699.41
2018-06-16T01:03:26.469Z,99697.84
2018-06-16T01:05:02.067Z,99699.36
2018-06-16T01:06:37.720Z,99703.19
2018-06-16T01:08:13.398Z,99701.86
2018-06-16T01:09:49.037Z,99700.45
2018-06-16T01:11:24.655Z,99704.23
2018-06-16T01:13:00.309Z,99697.64
2018-06-16T01:14:35.901Z,99700.12
2018-06-16T01:16:11.759Z,99695.58
2018-06-16T01:17:47.350Z,99693.33
2018-06-16T01:19:22.980Z,99694.90
2018-06-16T01:20:58.603Z,99696.63
2018-06-16T01:22:34.182Z,99695.09
2018-06-16T01:24:09.876Z,99691.84
2018-06-16T01:25:45.545Z,99691.32
2018-06-16T01:27:21.116Z,99688.47
2018-06-16T01:28:56.733Z,99689.55
2018-06-16T01:30:32.386Z,99681.14
2018-06-16T01:32:07.959Z,99684.69
2018-06-16T01:33:43.618Z,99687.42
2018-06-16T01:35:19.230Z,99675.64
2018-06-16T01:36:54.832Z,99685.73
2018-06-16T01:38:30.412Z,99679.86
2018-06-16T01:40:06.060Z,99683.69
2018-06-16T01:41:41.701Z,99684.89
2018-06-16T01:43:17.313Z,99684.49
2018-06-16T01:44:52.980Z,99681.16
2018-06-16T01:46:28.599Z,99688.42
2018-06-16T01:48:04.440Z,99685.01
2018-06-16T01:49:40.031Z,99684.69
2018-06-16T01:51:15.613Z,99682.24
2018-06-16T01:52:51.218Z,99681.31
2018-06-16T01:54:26.886Z,99677.13
2018-06-16T01:56:02.446Z,99674.56
2018-06-16T01:57:38.053Z,99674.27
2018-06-16T01:59:13.729Z,99679.02
2018-06-16T02:00:49.362Z,99682.03
2018-06-16T02:02:24.938Z,99676.73
2018-06-16T02:04:00.620Z,99679.95
2018-06-16T02:05:36.242Z,99674.08
2018-06-16T02:07:11.863Z,99674.09
2018-06-16T02:08:48.057Z,99679.06
2018-06-16T02:10:23.645Z,99676.81
2018-06-16T02:11:59.266Z,99671.63
2018-06-16T02:13:34.823Z,99676.05
2018-06-16T02:15:10.445Z,99672.76
2018-06-16T02:16:46.023Z,99674.09
2018-06-16T02:18:21.641Z,99669.58
2018-06-16T02:19:57.256Z,99664.75
2018-06-16T02:21:32.909Z,99668.29
2018-06-16T02:23:08.480Z,99668.80
2018-06-16T02:24:44.098Z,99666.35
2018-06-16T02:26:19.663Z,99662.94
2018-06-16T02:27:55.260Z,99658.72
2018-06-16T02:29:31.925Z,99658.27
2018-06-16T02:31:07.550Z,99660.09
2018-06-16T02:32:43.148Z,99655.38
2018-06-16T02:34:18.723Z,99652.38
2018-06-16T02:35:54.956Z,99661.45
2018-06-16T02:37:30.617Z,99660.05
2018-06-16T02:39:08.621Z,99656.84
2018-06-16T02:40:44.277Z,99662.26
2018-06-16T02:42:19.898Z,99662.45
2018-06-16T02:43:55.532Z,99663.42
2018-06-16T02:45:31.178Z,99659.86
2018-06-16T02:47:06.816Z,99658.80
2018-06-16T02:48:42.480Z,99660.20
2018-06-16T02:50:18.258Z,99663.05
2018-06-16T02:51:53.748Z,99658.87
2018-06-16T02:53:29.331Z,99665.39
2018-06-16T02:55:04.985Z,99660.20
2018-06-16T02:56:40.642Z,99663.19
2018-06-16T02:58:16.208Z,99662.74
2018-06-16T02:59:52.013Z,99656.31
2018-06-16T03:01:27.677Z,99662.12
2018-06-16T03:03:03.290Z,99658.55
2018-06-16T03:04:38.910Z,99656.18
2018-06-16T03:06:14.477Z,99660.93
2018-06-16T03:07:50.077Z,99652.97
2018-06-16T03:09:25.649Z,99653.17
2018-06-16T03:11:01.311Z,99654.89
2018-06-16T03:12:36.950Z,99658.61
2018-06-16T03:14:12.578Z,99661.11
2018-06-16T03:15:48.205Z,99659.05
2018-06-16T03:17:23.852Z,99653.15
2018-06-16T03:18:59.449Z,99652.46
2018-06-16T03:20:35.183Z,99655.47
2018-06-16T03:22:10.809Z,99652.25
2018-06-16T03:23:46.400Z,99654.30
2018-06-16T03:25:22.025Z,99657.69
2018-06-16T03:26:57.644Z,99660.98
2018-06-16T03:28:33.440Z,99655.19
2018-06-16T03:30:09.028Z,99659.25
2018-06-16T03:31:44.648Z,99658.52
2018-06-16T03:33:20.404Z,99658.77
2018-06-16T03:34:56.013Z,99655.09
2018-06-16T03:36:31.601Z,99659.56
2018-06-16T03:38:07.283Z,99660.09
2018-06-16T03:39:44.014Z,99668.92
2018-06-16T03:41:19.594Z,99657.42
2018-06-16T03:42:55.236Z,99659.23
2018-06-16T03:44:30.799Z,99663.54
2018-06-16T03:46:06.437Z,99660.56
2018-06-16T03:47:42.043Z,99661.69
2018-06-16T03:49:18.061Z,99667.32
2018-06-16T03:50:53.653Z,99666.70
2018-06-16T03:52:29.542Z,99664.05
2018-06-16T03:54:05.613Z,99668.65
2018-06-16T03:55:41.220Z,99668.56
2018-06-16T03:57:16.940Z,99659.92
2018-06-16T03:58:52.554Z,99665.39
2018-06-16T04:00:28.216Z,99659.88
2018-06-16T04:02:03.784Z,99658.84
2018-06-16T04:03:39.404Z,99662.86
2018-06-16T04:05:15.038Z,99658.87
2018-06-16T04:06:50.721Z,99656.38
2018-06-16T04:08:26.261Z,99657.44
2018-06-16T04:10:01.826Z,99657.02
2018-06-16T04:11:37.396Z,99662.94
2018-06-16T04:13:13.066Z,99660.20
2018-06-16T04:14:49.028Z,99659.91
2018-06-16T04:16:26.696Z,99660.88
2018-06-16T04:18:02.299Z,99666.30
2018-06-16T04:19:37.970Z,99662.33
2018-06-16T04:21:13.657Z,99665.56
2018-06-16T04:22:49.260Z,99664.44
2018-06-16T04:24:24.820Z,99671.83
2018-06-16T04:26:00.441Z,99667.73
2018-06-16T04:27:36.099Z,99665.08
2018-06-16T04:29:11.723Z,99667.70
2018-06-16T04:30:47.341Z,99665.05
2018-06-16T04:32:22.913Z,99669.62
2018-06-16T04:33:58.547Z,99669.17
2018-06-16T04:35:34.255Z,99666.80
2018-06-16T04:37:09.837Z,99659.91
2018-06-16T04:38:45.449Z,99651.82
2018-06-16T04:40:21.010Z,99657.81
2018-06-16T04:41:56.681Z,99661.80
2018-06-16T04:43:32.281Z,99659.66
2018-06-16T04:45:07.922Z,99659.63
2018-06-16T04:46:43.498Z,99662.67
2018-06-16T04:48:19.317Z,99665.03
2018-06-16T04:49:54.873Z,99661.92
2018-06-16T04:51:30.523Z,99665.72
2018-06-16T04:53:06.221Z,99670.47
2018-06-16T04:54:41.738Z,99665.55
2018-06-16T04:56:17.316Z,99667.92
2018-06-16T04:57:53.125Z,99668.56
2018-06-16T04:59:28.733Z,99670.12
2018-06-16T05:01:04.369Z,99672.09
2018-06-16T05:02:39.980Z,99670.19
2018-06-16T05:04:15.569Z,99668.69
2018-06-16T05:05:51.207Z,99669.12
2018-06-16T05:07:26.797Z,99671.52
2018-06-16T05:09:02.468Z,99666.78
2018-06-16T05:10:39.170Z,99669.62
2018-06-16T05:12:14.805Z,99673.61
2018-06-16T05:13:50.369Z,99669.56
2018-06-16T05:15:25.967Z,99667.82
2018-06-16T05:17:01.638Z,99666.72
2018-06-16T05:18:37.156Z,99672.55
2018-06-16T05:20:12.770Z,99667.71
2018-06-16T05:21:48.335Z,99675.58
2018-06-16T05:23:24.305Z,99672.41
2018-06-16T05:24:59.879Z,99671.47
2018-06-16T05:26:35.560Z,99674.03
2018-06-16T05:28:11.173Z,99667.66
2018-06-16T05:29:46.732Z,99672.70
2018-06-16T05:31:22.458Z,99671.11
2018-06-16T05:33:04.204Z,99670.62
2018-06-16T05:34:45.322Z,99669.86
2018-06-16T05:36:23.782Z,99667.91
2018-06-16T05:38:04.319Z,99674.63
2018-06-16T05:41:14.390Z,99674.63
2018-06-16T05:42:52.743Z,99676.97
2018-06-16T05:44:33.076Z,99675.02
2018-06-16T05:46:12.652Z,99674.34
2018-06-16T05:48:05.852Z,99679.55
2018-06-16T05:50:07.107Z,99680.23
2018-06-16T05:54:02.417Z,99682.88
2018-06-16T05:56:08.727Z,99681.38
2018-06-16T05:58:01.357Z,99683.47
2018-06-16T05:59:40.685Z,99681.23
2018-06-16T06:01:17.598Z,99681.30
2018-06-16T06:02:59.991Z,99683.63
2018-06-16T06:04:38.152Z,99679.81
2018-06-16T06:06:18.680Z,99678.59
2018-06-16T06:08:00.254Z,99680.64
2018-06-16T06:09:39.666Z,99681.70
2018-06-16T06:11:22.593Z,99680.42
2018-06-16T06:12:59.216Z,99684.06
2018-06-16T06:14:39.596Z,99680.75
2018-06-16T06:16:16.900Z,99683.18
2018-06-16T06:17:58.097Z,99680.72
2018-06-16T06:19:36.015Z,99675.09
2018-06-16T06:21:13.385Z,99683.06
2018-06-16T06:22:53.362Z,99680.23
2018-06-16T06:24:41.937Z,99678.48
2018-06-16T06:26:53.298Z,99684.06
2018-06-16T06:28:34.725Z,99684.88
2018-06-16T06:30:12.953Z,99681.07
2018-06-16T06:31:49.131Z,99687.02
2018-06-16T06:33:25.414Z,99685.91
2018-06-16T06:35:01.348Z,99682.77
2018-06-16T06:36:37.305Z,99689.91
2018-06-16T06:38:12.915Z,99688.28
2018-06-16T06:39:48.501Z,99682.59
2018-06-16T06:41:24.382Z,99684.17
2018-06-16T06:43:00.017Z,99683.36
2018-06-16T06:44:35.613Z,99683.38
2018-06-16T06:46:11.281Z,99683.20
2018-06-16T06:47:46.947Z,99685.55
2018-06-16T06:49:22.572Z,99684.53
2018-06-16T06:50:58.206Z,99687.56
2018-06-16T06:52:33.802Z,99682.90
2018-06-16T06:54:09.733Z,99681.45
2018-06-16T06:55:45.334Z,99686.95
2018-06-16T06:57:22.001Z,99673.37
2018-06-16T06:58:57.650Z,99669.75
2018-06-16T07:00:33.406Z,99670.06
2018-06-16T07:02:09.244Z,99675.52
2018-06-16T07:03:44.813Z,99668.29
2018-06-16T07:05:20.444Z,99665.71
2018-06-16T07:06:56.071Z,99667.71
2018-06-16T07:08:31.720Z,99665.75
2018-06-16T07:10:07.291Z,99663.81
2018-06-16T07:11:43.787Z,99667.31
2018-06-16T07:13:19.386Z,99669.00
2018-06-16T07:14:54.965Z,99671.53
2018-06-16T07:16:30.562Z,99669.05
2018-06-16T07:18:06.369Z,99663.00
2018-06-16T07:19:42.016Z,99656.25
2018-06-16T07:21:17.675Z,99667.31
2018-06-16T07:22:53.621Z,99670.82
2018-06-16T07:24:29.276Z,99669.83
2018-06-16T07:26:04.900Z,99670.30
2018-06-16T07:27:40.577Z,99668.30
2018-06-16T07:29:16.273Z,99658.48
2018-06-16T07:30:51.802Z,99669.98
2018-06-16T07:32:27.441Z,99672.13
2018-06-16T07:34:03.088Z,99668.65
2018-06-16T07:35:39.096Z,99672.67
2018-06-16T07:37:14.989Z,99672.64
2018-06-16T07:38:50.660Z,99669.17
2018-06-16T07:40:27.239Z,99677.66
2018-06-16T07:42:02.826Z,99670.30
2018-06-16T07:43:38.478Z,99674.64
2018-06-16T07:45:14.155Z,99668.50
2018-06-16T07:46:49.766Z,99671.86
2018-06-16T07:48:25.398Z,99670.98
2018-06-16T07:50:01.073Z,99672.81
2018-06-16T07:51:36.973Z,99671.34
2018-06-16T07:53:12.609Z,99677.48
2018-06-16T07:54:48.284Z,99676.35
2018-06-16T07:56:23.995Z,99676.00
2018-06-16T07:57:59.680Z,99682.03
2018-06-16T07:59:35.702Z,99681.02
2018-06-16T08:01:11.385Z,99680.03
2018-06-16T08:02:52.118Z,99683.36
2018-06-16T08:04:31.893Z,99684.20
2018-06-16T08:06:09.364Z,99686.39
2018-06-16T08:07:51.110Z,99683.38
2018-06-16T08:09:39.493Z,99680.05
2018-06-16T08:13:11.903Z,99682.91
2018-06-16T08:14:48.389Z,99678.59
2018-06-16T08:16:24.258Z,99678.77
2018-06-16T08:18:06.623Z,99676.94
2018-06-16T08:19:42.454Z,99681.95
2018-06-16T08:21:19.042Z,99685.09
2018-06-16T08:22:56.402Z,99677.76
2018-06-16T08:24:32.933Z,99677.76
2018-06-16T08:26:10.578Z,99676.73
2018-06-16T08:27:46.857Z,99676.41
2018-06-16T08:29:23.010Z,99680.75
2018-06-16T08:30:59.786Z,99680.69
2018-06-16T08:32:35.459Z,99677.67
2018-06-16T08:34:12.850Z,99680.97
2018-06-16T08:35:49.285Z,99681.82
2018-06-16T08:37:30.182Z,99679.98
2018-06-16T08:39:14.268Z,99679.44
2018-06-16T08:40:51.035Z,99681.83
2018-06-16T08:42:35.238Z,99676.60
2018-06-16T08:44:11.536Z,99669.77
2018-06-16T08:45:48.246Z,99670.91
2018-06-16T08:47:24.374Z,99676.38
2018-06-16T08:49:00.905Z,99673.55
2018-06-16T08:50:37.821Z,99673.44
2018-06-16T08:52:15.447Z,99675.23
2018-06-16T08:53:51.640Z,99672.42
2018-06-16T08:55:27.458Z,99675.88
2018-06-16T08:57:03.010Z,99675.08
2018-06-16T08:58:38.721Z,99674.45
2018-06-16T09:00:14.697Z,99676.71
2018-06-16T09:01:50.475Z,99670.16
2018-06-16T09:03:33.165Z,99664.94
2018-06-16T09:05:10.123Z,99668.37
2018-06-16T09:06:45.816Z,99669.22
2018-06-16T09:08:21.710Z,99670.94
2018-06-16T09:09:57.548Z,99669.72
2018-06-16T09:11:33.515Z,99669.89
2018-06-16T09:13:09.143Z,99668.99
2018-06-16T09:14:44.728Z,99671.03
2018-06-16T09:16:20.350Z,99667.87
2018-06-16T09:17:56.728Z,99669.69
2018-06-16T09:19:34.507Z,99669.42
2018-06-16T09:21:10.138Z,99671.31
2018-06-16T09:22:45.791Z,99668.75
2018-06-16T09:24:21.672Z,99668.88
2018-06-16T09:25:58.202Z,99665.73
2018-06-16T09:27:33.883Z,99666.28
2018-06-16T09:29:09.828Z,99664.81
2018-06-16T09:30:45.442Z,99661.50
2018-06-16T09:32:21.318Z,99664.94
2018-06-16T09:33:57.183Z,99666.76
2018-06-16T09:35:33.313Z,99666.53
2018-06-16T09:37:09.016Z,99665.46
2018-06-16T09:38:44.692Z,99662.27
2018-06-16T09:40:20.314Z,99664.14
2018-06-16T09:41:55.881Z,99666.91
2018-06-16T09:43:31.497Z,99670.39
2018-06-16T09:45:07.182Z,99667.02
2018-06-16T09:46:43.149Z,99669.05
2018-06-16T09:48:18.842Z,99663.00
2018-06-16T09:49:54.583Z,99665.55
2018-06-16T09:51:30.275Z,99663.45
2018-06-16T09:53:06.351Z,99660.20
2018-06-16T09:54:42.031Z,99662.88
2018-06-16T09:56:17.686Z,99663.05
2018-06-16T09:57:53.352Z,99656.72
2018-06-16T09:59:28.992Z,99655.73
2018-06-16T10:01:05.166Z,99658.40
2018-06-16T10:02:40.811Z,99660.73
2018-06-16T10:04:16.462Z,99655.23
2018-06-16T10:05:52.111Z,99649.38
2018-06-16T10:07:28.145Z,99650.81
2018-06-16T10:09:05.161Z,99653.97
2018-06-16T10:10:41.297Z,99649.34
2018-06-16T10:12:16.920Z,99649.56
2018-06-16T10:13:52.541Z,99656.61
2018-06-16T10:15:28.126Z,99653.30
2018-06-16T10:17:04.325Z,99654.45
2018-06-16T10:18:39.961Z,99656.55
2018-06-16T10:20:15.582Z,99651.98
2018-06-16T10:21:51.174Z,99652.64
2018-06-16T10:23:27.057Z,99646.69
2018-06-16T10:25:02.670Z,99645.82
2018-06-16T10:26:39.045Z,99648.61
2018-06-16T10:28:16.451Z,99642.69
2018-06-16T10:29:52.244Z,99646.17
2018-06-16T10:31:28.032Z,99640.16
2018-06-16T10:33:03.655Z,99641.51
2018-06-16T10:34:42.789Z,99632.34
2018-06-16T10:36:18.437Z,99636.61
2018-06-16T10:37:53.984Z,99638.97
2018-06-16T10:39:30.254Z,99635.63
2018-06-16T10:41:05.819Z,99638.81
2018-06-16T10:42:41.388Z,99629.12
2018-06-16T10:44:17.001Z,99630.84
2018-06-16T10:45:52.600Z,99627.50
2018-06-16T10:47:28.608Z,99616.66
2018-06-16T10:49:04.177Z,99614.87
2018-06-16T10:50:39.749Z,99614.23
2018-06-16T10:52:15.350Z,99615.72
2018-06-16T10:53:54.134Z,99611.97
2018-06-16T10:55:30.664Z,99610.39
2018-06-16T10:57:06.234Z,99605.78
2018-06-16T10:58:41.831Z,99602.73
2018-06-16T11:00:17.561Z,99605.03
2018-06-16T11:01:53.161Z,99598.83
2018-06-16T11:03:29.667Z,99602.58
2018-06-16T11:05:05.254Z,99598.47
2018-06-16T11:06:40.853Z,99604.39
2018-06-16T11:10:22.166Z,99595.24
2018-06-16T11:12:02.520Z,99597.59
2018-06-16T11:13:40.179Z,99594.97
2018-06-16T11:15:16.379Z,99589.58
2018-06-16T11:16:52.213Z,99596.50
2018-06-16T11:18:27.930Z,99594.64
2018-06-16T11:20:03.557Z,99590.62
2018-06-16T11:21:40.219Z,99592.81
2018-06-16T11:23:16.025Z,99592.25
2018-06-16T11:24:53.839Z,99590.45
2018-06-16T11:26:29.398Z,99587.45
2018-06-16T11:28:05.034Z,99586.61
2018-06-16T11:29:40.639Z,99591.59
2018-06-16T11:31:17.169Z,99586.27
2018-06-16T11:32:57.298Z,99587.88
2018-06-16T11:34:33.705Z,99580.09
2018-06-16T11:36:09.306Z,99583.98
2018-06-16T11:37:45.658Z,99578.31
2018-06-16T11:39:21.227Z,99580.72
2018-06-16T11:40:57.305Z,99574.17
2018-06-16T11:42:32.790Z,99571.55
2018-06-16T11:44:09.145Z,99567.34
2018-06-16T11:45:45.498Z,99571.56
2018-06-16T11:47:23.234Z,99573.05
2018-06-16T11:48:58.786Z,99565.84
2018-06-16T11:50:36.486Z,99566.54
2018-06-16T11:52:13.230Z,99563.25
2018-06-16T11:53:48.960Z,99559.86
2018-06-16T11:55:25.494Z,99561.73
2018-06-16T11:57:01.973Z,99554.52
2018-06-16T11:58:38.189Z,99556.70
2018-06-16T12:00:13.838Z,99553.70
2018-06-16T12:01:49.615Z,99551.28
2018-06-16T12:03:25.174Z,99550.45
2018-06-16T12:05:00.801Z,99544.53
2018-06-16T12:08:41.733Z,99536.58
2018-06-16T12:10:19.400Z,99539.84
2018-06-16T12:11:56.153Z,99533.42
2018-06-16T12:13:32.609Z,99533.30
2018-06-16T12:15:09.208Z,99532.12
2018-06-16T12:16:48.791Z,99524.73
2018-06-16T12:18:26.751Z,99532.05
2018-06-16T12:20:03.885Z,99529.95
2018-06-16T12:21:42.079Z,99528.67
2018-06-16T12:23:18.239Z,99523.27
2018-06-16T12:24:55.252Z,99519.19
2018-06-16T12:26:32.031Z,99522.36
2018-06-16T12:28:08.525Z,99519.23
2018-06-16T12:29:46.934Z,99521.04
2018-06-16T12:31:24.861Z,99520.17
2018-06-16T12:33:03.313Z,99519.23
2018-06-16T12:34:44.486Z,99521.00
2018-06-16T12:36:25.834Z,99519.51
2018-06-16T12:38:01.534Z,99520.16
2018-06-16T12:39:37.100Z,99512.57
2018-06-16T12:41:13.549Z,99520.45
2018-06-16T12:42:49.214Z,99520.14
2018-06-16T12:44:25.862Z,99519.28
2018-06-16T12:46:03.163Z,99514.05
2018-06-16T12:47:44.521Z,99516.06
2018-06-16T12:49:20.344Z,99515.86
2018-06-16T12:51:00.767Z,99515.38
2018-06-16T12:52:45.395Z,99516.48
2018-06-16T12:54:20.957Z,99513.15
2018-06-16T12:55:58.626Z,99508.08
2018-06-16T12:57:35.613Z,99506.11
2018-06-16T12:59:11.708Z,99505.93
2018-06-16T13:00:47.883Z,99500.52
2018-06-16T13:02:23.594Z,99502.89
2018-06-16T13:04:00.967Z,99500.05
2018-06-16T13:05:36.624Z,99499.25
2018-06-16T13:07:12.721Z,99502.59
2018-06-16T13:08:50.172Z,99502.36
2018-06-16T13:10:25.949Z,99500.82
2018-06-16T13:12:03.169Z,99500.64
2018-06-16T13:13:42.497Z,99500.40
2018-06-16T13:15:18.527Z,99498.39
2018-06-16T13:16:58.617Z,99494.10
2018-06-16T13:18:34.525Z,99491.10
2018-06-16T13:20:10.050Z,99490.48
2018-06-16T13:21:45.644Z,99485.57
2018-06-16T13:23:21.206Z,99487.48
2018-06-16T13:24:57.096Z,99487.33
2018-06-16T13:26:33.053Z,99485.30
2018-06-16T13:28:11.043Z,99488.17
2018-06-16T13:31:52.991Z,99475.52
2018-06-16T13:33:28.605Z,99480.08
2018-06-16T13:35:04.265Z,99474.06
2018-06-16T13:36:39.793Z,99477.34
2018-06-16T13:38:15.349Z,99475.20
2018-06-16T13:39:51.038Z,99467.58
2018-06-16T13:41:27.645Z,99477.34
2018-06-16T13:43:04.936Z,99474.29
2018-06-16T13:44:42.948Z,99474.97
2018-06-16T13:46:18.561Z,99471.41
2018-06-16T13:47:54.441Z,99471.20
2018-06-16T13:49:31.097Z,99474.87
2018-06-16T13:51:06.879Z,99474.70
2018-06-16T13:52:42.455Z,99469.39
2018-06-16T13:54:21.988Z,99462.80
2018-06-16T13:55:57.569Z,99463.31
2018-06-16T13:57:33.387Z,99464.99
2018-06-16T13:59:09.705Z,99461.87
2018-06-16T14:00:45.294Z,99460.64
2018-06-16T14:02:21.834Z,99452.28
2018-06-16T14:03:57.415Z,99445.77
2018-06-16T14:05:33.771Z,99454.15
2018-06-16T14:07:09.411Z,99458.64
2018-06-16T14:08:44.942Z,99454.66
2018-06-16T14:10:22.260Z,99456.17
2018-06-16T14:11:58.514Z,99442.91
2018-06-16T14:13:35.177Z,99448.36
2018-06-16T14:15:11.836Z,99443.88
2018-06-16T14:16:48.346Z,99441.92
2018-06-16T14:18:24.837Z,99445.59
2018-06-16T14:20:04.711Z,99440.80
2018-06-16T14:21:40.721Z,99440.55
2018-06-16T14:23:16.254Z,99441.30
2018-06-16T14:24:53.576Z,99440.94
2018-06-16T14:26:31.056Z,99439.95
2018-06-16T14:28:06.792Z,99440.41
2018-06-16T14:29:42.483Z,99440.32
2018-06-16T14:31:18.758Z,99442.80
2018-06-16T14:32:54.600Z,99439.00
2018-06-16T14:34:31.189Z,99433.22
2018-06-16T14:36:07.916Z,99441.67
2018-06-16T14:37:44.207Z,99417.61
2018-06-16T14:39:19.799Z,99442.06
2018-06-16T14:40:55.866Z,99434.12
2018-06-16T14:42:31.957Z,99433.09
2018-06-16T14:44:07.519Z,99429.40
2018-06-16T14:45:43.069Z,99430.18
2018-06-16T14:47:19.185Z,99434.61
2018-06-16T14:48:54.847Z,99429.83
2018-06-16T14:50:34.240Z,99431.49
2018-06-16T14:52:11.462Z,99425.36
2018-06-16T14:53:47.098Z,99429.27
2018-06-16T14:55:23.668Z,99426.44
2018-06-16T14:56:59.229Z,99426.30
2018-06-16T14:58:35.145Z,99428.84
2018-06-16T15:00:11.327Z,99422.55
2018-06-16T15:01:46.985Z,99423.30
2018-06-16T15:03:22.584Z,99419.70
2018-06-16T15:04:58.224Z,99421.72
2018-06-16T15:06:33.827Z,99421.28
2018-06-16T15:08:09.462Z,99418.97
2018-06-16T15:09:45.279Z,99418.01
2018-06-16T15:11:20.835Z,99416.66
2018-06-16T15:12:56.397Z,99419.31
2018-06-16T15:16:37.931Z,99417.20
2018-06-16T15:18:13.523Z,99415.09
2018-06-16T15:19:49.158Z,99406.09
2018-06-16T15:21:24.749Z,99405.91
2018-06-16T15:23:00.372Z,99410.09
2018-06-16T15:24:35.981Z,99403.41
2018-06-16T15:26:11.494Z,99407.53
2018-06-16T15:27:47.004Z,99404.11
2018-06-16T15:29:23.238Z,99397.95
2018-06-16T15:30:59.844Z,99406.34
2018-06-16T15:32:35.417Z,99406.03
2018-06-16T15:34:11.199Z,99406.27
2018-06-16T15:35:46.756Z,99399.19
2018-06-16T15:37:22.585Z,99403.70
2018-06-16T15:38:58.318Z,99401.39
2018-06-16T15:40:33.961Z,99397.10
2018-06-16T15:42:10.286Z,99398.07
2018-06-16T15:43:57.323Z,99400.33
2018-06-16T15:45:37.138Z,99398.37
2018-06-16T15:51:30.695Z,99393.34
2018-06-16T15:53:07.850Z,99395.18
2018-06-16T15:54:43.498Z,99390.00
2018-06-16T15:56:19.116Z,99386.00
2018-06-16T15:57:54.869Z,99390.83
2018-06-16T15:59:30.565Z,99385.56
2018-06-16T16:01:07.679Z,99390.48
2018-06-16T16:02:45.121Z,99385.11
2018-06-16T16:04:23.647Z,99385.94
2018-06-16T16:05:59.221Z,99388.30
2018-06-16T16:07:36.440Z,99390.72
2018-06-16T16:09:12.095Z,99388.61
2018-06-16T16:10:48.218Z,99390.52
2018-06-16T16:12:24.056Z,99390.03
2018-06-16T16:13:59.735Z,99388.44
2018-06-16T16:15:35.316Z,99384.70
2018-06-16T16:17:10.922Z,99381.36
2018-06-16T16:18:46.684Z,99384.73
2018-06-16T16:20:26.176Z,99382.96
2018-06-16T16:22:03.300Z,99382.68
2018-06-16T16:23:40.207Z,99385.45
2018-06-16T16:25:21.566Z,99384.70
2018-06-16T16:27:01.322Z,99387.81
2018-06-16T16:28:52.452Z,99389.16
2018-06-16T16:30:43.773Z,99381.11
2018-06-16T16:32:22.282Z,99380.61
2018-06-16T16:34:00.019Z,99378.70
2018-06-16T16:35:39.251Z,99385.63
2018-06-16T16:37:15.062Z,99384.07
2018-06-16T16:38:51.500Z,99382.84
2018-06-16T16:40:27.170Z,99379.39
2018-06-16T16:42:02.761Z,99384.79
2018-06-16T16:43:38.313Z,99383.44
2018-06-16T16:45:14.278Z,99385.57
2018-06-16T16:46:49.933Z,99381.84
2018-06-16T16:48:25.490Z,99381.17
2018-06-16T16:50:01.289Z,99378.11
2018-06-16T16:51:38.921Z,99378.94
2018-06-16T16:53:14.429Z,99381.47
2018-06-16T16:54:50.988Z,99379.20
2018-06-16T16:56:26.559Z,99380.72
2018-06-16T16:58:02.113Z,99380.32
2018-06-16T16:59:37.768Z,99383.51
2018-06-16T17:01:14.384Z,99375.07
2018-06-16T17:02:49.981Z,99377.91
2018-06-16T17:04:25.719Z,99382.58
2018-06-16T17:06:01.321Z,99383.66
2018-06-16T17:07:37.407Z,99382.48
2018-06-16T17:09:13.170Z,99386.48
2018-06-16T17:10:48.730Z,99379.66
2018-06-16T17:12:24.265Z,99381.88
2018-06-16T17:13:59.884Z,99385.23
2018-06-16T17:15:36.110Z,99382.63
2018-06-16T17:17:11.688Z,99379.55
2018-06-16T17:18:49.561Z,99381.22
2018-06-16T17:20:25.160Z,99381.13
2018-06-16T17:22:01.170Z,99381.16
2018-06-16T17:23:37.644Z,99385.02
2018-06-16T17:25:14.071Z,99383.67
2018-06-16T17:26:49.734Z,99384.20
2018-06-16T17:28:25.309Z,99381.00
2018-06-16T17:30:01.277Z,99389.72
2018-06-16T17:31:37.232Z,99385.42
2018-06-16T17:33:13.665Z,99388.61
2018-06-16T17:34:49.837Z,99386.76
2018-06-16T17:36:28.675Z,99387.08
2018-06-16T17:38:08.748Z,99392.32
2018-06-16T17:39:59.497Z,99394.61
2018-06-16T17:42:06.110Z,99391.48
2018-06-16T17:43:55.682Z,99395.91
2018-06-16T17:45:34.801Z,99399.30
2018-06-16T17:47:14.076Z,99392.75
2018-06-16T17:48:57.821Z,99395.00
2018-06-16T17:50:34.072Z,99397.64
2018-06-16T17:52:11.600Z,99390.47
2018-06-16T17:53:58.034Z,99391.70
2018-06-16T17:55:41.323Z,99392.70
2018-06-16T17:57:38.704Z,99391.59
2018-06-16T17:59:34.281Z,99396.61
2018-06-16T18:01:29.771Z,99392.95
2018-06-16T18:03:16.531Z,99394.06
2018-06-16T18:04:52.623Z,99390.55
2018-06-16T18:06:33.114Z,99396.91
2018-06-16T18:08:09.517Z,99398.58
2018-06-16T18:09:48.174Z,99393.33
2018-06-16T18:11:24.771Z,99394.73
2018-06-16T18:13:04.103Z,99395.80
2018-06-16T18:14:46.907Z,99391.66
2018-06-16T18:16:32.742Z,99384.33
2018-06-16T18:18:27.249Z,99392.86
2018-06-16T18:20:17.915Z,99393.07
2018-06-16T18:21:56.621Z,99395.30
2018-06-16T18:23:33.632Z,99397.13
2018-06-16T18:25:09.409Z,99395.75
2018-06-16T18:26:54.327Z,99401.86
2018-06-16T18:28:37.314Z,99398.73
2018-06-16T18:30:31.351Z,99397.89
2018-06-16T18:32:08.526Z,99391.91
2018-06-16T18:33:45.414Z,99394.94
2018-06-16T18:35:20.988Z,99395.06
2018-06-16T18:37:05.882Z,99393.88
2018-06-16T18:38:42.008Z,99394.80
2018-06-16T18:40:20.874Z,99395.33
2018-06-16T18:41:57.440Z,99396.30
2018-06-16T18:43:33.922Z,99390.78
2018-06-16T18:45:10.552Z,99405.09
2018-06-16T18:46:48.137Z,99401.53
2018-06-16T18:48:46.547Z,99400.77
2018-06-16T18:50:38.273Z,99399.73
2018-06-16T18:52:23.771Z,99402.80
2018-06-16T18:54:04.556Z,99393.03
2018-06-16T18:55:44.995Z,99397.17
2018-06-16T18:57:27.993Z,99400.31
2018-06-16T18:59:05.234Z,99394.24
2018-06-16T19:00:42.602Z,99396.53
2018-06-16T19:02:19.969Z,99401.06
2018-06-16T19:03:56.254Z,99397.83
2018-06-16T19:05:31.873Z,99401.58
2018-06-16T19:07:08.146Z,99405.55
2018-06-16T19:09:00.788Z,99401.96
2018-06-16T19:10:40.861Z,99400.82
2018-06-16T19:12:29.874Z,99403.05
2018-06-16T19:16:09.161Z,99402.49
2018-06-16T19:17:54.646Z,99405.22
2018-06-16T19:19:33.331Z,99409.19
2018-06-16T19:21:12.447Z,99407.72